sensor_id;sensor_type;location;lat;lon;timestamp;pressure;altitude;pressure_sealevel;temperature;humidity
8061;BME280;4073;42.626;25.386;2023-04-23T00:00:28;97237.31;;;8.66;100.00
8061;BME280;4073;42.626;25.386;2023-04-23T00:02:55;97243.97;;;8.58;100.00
8061;BME280;4073;42.626;25.386;2023-04-23T00:05:25;97198.28;;;8.40;100.00
8061;BME280;4073;42.626;25.386;2023-04-23T00:07:52;97201.97;;;8.39;100.00
8061;BME280;4073;42.626;25.386;2023-04-23T00:10:18;97236.69;;;8.49;100.00
8061;BME280;4073;42.626;25.386;2023-04-23T00:12:44;97234.06;;;8.54;100.00
8061;BME280;4073;42.626;25.386;2023-04-23T00:15:11;97240.72;;;8.56;100.00
8061;BME280;4073;42.626;25.386;2023-04-23T00:17:37;97244.16;;;8.52;100.00
8061;BME280;4073;42.626;25.386;2023-04-23T00:20:04;97239.66;;;8.57;100.00
8061;BME280;4073;42.626;25.386;2023-04-23T00:22:30;97232.22;;;8.59;100.00
8061;BME280;4073;42.626;25.386;2023-04-23T00:24:56;97213.75;;;8.43;100.00
8061;BME280;4073;42.626;25.386;2023-04-23T00:27:21;97215.88;;;8.46;100.00
8061;BME280;4073;42.626;25.386;2023-04-23T00:29:46;97236.22;;;8.57;100.00
8061;BME280;4073;42.626;25.386;2023-04-23T00:32:12;97210.72;;;8.29;100.00
8061;BME280;4073;42.626;25.386;2023-04-23T00:34:39;97237.41;;;8.39;100.00
8061;BME280;4073;42.626;25.386;2023-04-23T00:37:05;97246.72;;;8.37;100.00
8061;BME280;4073;42.626;25.386;2023-04-23T00:39:31;97234.72;;;8.34;100.00
8061;BME280;4073;42.626;25.386;2023-04-23T00:41:59;97236.78;;;8.27;100.00
8061;BME280;4073;42.626;25.386;2023-04-23T00:44:31;97239.56;;;8.11;100.00
8061;BME280;4073;42.626;25.386;2023-04-23T00:46:56;97237.66;;;8.06;100.00
8061;BME280;4073;42.626;25.386;2023-04-23T00:49:24;97231.53;;;8.06;100.00
8061;BME280;4073;42.626;25.386;2023-04-23T00:51:49;97221.16;;;7.77;100.00
8061;BME280;4073;42.626;25.386;2023-04-23T00:54:15;97203.91;;;7.80;100.00
8061;BME280;4073;42.626;25.386;2023-04-23T00:56:40;97244.28;;;8.03;100.00
8061;BME280;4073;42.626;25.386;2023-04-23T00:59:06;97240.06;;;8.07;100.00
8061;BME280;4073;42.626;25.386;2023-04-23T01:01:31;97250.72;;;8.07;100.00
8061;BME280;4073;42.626;25.386;2023-04-23T01:03:57;97243.47;;;8.03;100.00
8061;BME280;4073;42.626;25.386;2023-04-23T01:06:23;97251.22;;;8.04;100.00
8061;BME280;4073;42.626;25.386;2023-04-23T01:08:49;97244.22;;;7.93;100.00
8061;BME280;4073;42.626;25.386;2023-04-23T01:11:15;97240.69;;;7.88;100.00
8061;BME280;4073;42.626;25.386;2023-04-23T01:13:41;97253.19;;;7.87;100.00
8061;BME280;4073;42.626;25.386;2023-04-23T01:16:07;97242.50;;;7.82;100.00
8061;BME280;4073;42.626;25.386;2023-04-23T01:18:33;97243.81;;;7.80;100.00
8061;BME280;4073;42.626;25.386;2023-04-23T01:20:59;97210.63;;;7.61;100.00
8061;BME280;4073;42.626;25.386;2023-04-23T01:23:24;97247.78;;;7.77;100.00
8061;BME280;4073;42.626;25.386;2023-04-23T01:25:52;97249.84;;;7.70;100.00
8061;BME280;4073;42.626;25.386;2023-04-23T01:28:17;97241.22;;;7.58;100.00
8061;BME280;4073;42.626;25.386;2023-04-23T01:30:44;97229.53;;;7.38;100.00
8061;BME280;4073;42.626;25.386;2023-04-23T01:33:10;97251.00;;;7.53;100.00
8061;BME280;4073;42.626;25.386;2023-04-23T01:35:36;97239.56;;;7.52;100.00
8061;BME280;4073;42.626;25.386;2023-04-23T01:38:02;97243.03;;;7.53;100.00
8061;BME280;4073;42.626;25.386;2023-04-23T01:40:28;97243.88;;;7.58;100.00
8061;BME280;4073;42.626;25.386;2023-04-23T01:42:55;97235.28;;;7.51;100.00
8061;BME280;4073;42.626;25.386;2023-04-23T01:45:21;97248.53;;;7.46;100.00
8061;BME280;4073;42.626;25.386;2023-04-23T01:47:46;97245.31;;;7.44;100.00
8061;BME280;4073;42.626;25.386;2023-04-23T01:50:12;97238.94;;;7.45;100.00
8061;BME280;4073;42.626;25.386;2023-04-23T01:52:37;97241.59;;;7.45;100.00
8061;BME280;4073;42.626;25.386;2023-04-23T01:55:03;97238.38;;;7.43;100.00
8061;BME280;4073;42.626;25.386;2023-04-23T01:57:29;97246.81;;;7.35;100.00
8061;BME280;4073;42.626;25.386;2023-04-23T02:00:05;97247.66;;;7.41;100.00
8061;BME280;4073;42.626;25.386;2023-04-23T02:02:37;97249.78;;;7.39;100.00
8061;BME280;4073;42.626;25.386;2023-04-23T02:05:04;97254.47;;;7.32;100.00
8061;BME280;4073;42.626;25.386;2023-04-23T02:07:34;97250.47;;;7.29;100.00
8061;BME280;4073;42.626;25.386;2023-04-23T02:10:01;97244.03;;;7.25;100.00
8061;BME280;4073;42.626;25.386;2023-04-23T02:12:27;97252.50;;;7.22;100.00
8061;BME280;4073;42.626;25.386;2023-04-23T02:14:52;97255.47;;;7.26;100.00
8061;BME280;4073;42.626;25.386;2023-04-23T02:17:21;97257.56;;;7.24;100.00
8061;BME280;4073;42.626;25.386;2023-04-23T02:19:48;97242.59;;;7.18;100.00
8061;BME280;4073;42.626;25.386;2023-04-23T02:22:15;97237.50;;;7.11;100.00
8061;BME280;4073;42.626;25.386;2023-04-23T02:24:40;97259.75;;;7.27;100.00
8061;BME280;4073;42.626;25.386;2023-04-23T02:27:07;97269.06;;;7.29;100.00
8061;BME280;4073;42.626;25.386;2023-04-23T02:29:32;97239.41;;;7.16;100.00
8061;BME280;4073;42.626;25.386;2023-04-23T02:31:58;97265.44;;;7.35;100.00
8061;BME280;4073;42.626;25.386;2023-04-23T02:34:23;97263.59;;;7.36;100.00
8061;BME280;4073;42.626;25.386;2023-04-23T02:36:49;97265.69;;;7.34;100.00
8061;BME280;4073;42.626;25.386;2023-04-23T02:39:15;97261.41;;;7.33;100.00
8061;BME280;4073;42.626;25.386;2023-04-23T02:41:41;97257.38;;;7.30;100.00
8061;BME280;4073;42.626;25.386;2023-04-23T02:44:06;97266.13;;;7.26;100.00
8061;BME280;4073;42.626;25.386;2023-04-23T02:46:32;97263.72;;;7.24;100.00
8061;BME280;4073;42.626;25.386;2023-04-23T02:48:57;97236.00;;;6.99;100.00
8061;BME280;4073;42.626;25.386;2023-04-23T02:51:23;97260.59;;;7.11;100.00
8061;BME280;4073;42.626;25.386;2023-04-23T02:53:48;97274.56;;;7.01;100.00
8061;BME280;4073;42.626;25.386;2023-04-23T02:56:14;97258.06;;;6.99;100.00
8061;BME280;4073;42.626;25.386;2023-04-23T02:58:39;97270.31;;;7.00;100.00
8061;BME280;4073;42.626;25.386;2023-04-23T03:01:05;97252.81;;;6.83;100.00
8061;BME280;4073;42.626;25.386;2023-04-23T03:03:32;97270.25;;;6.95;100.00
8061;BME280;4073;42.626;25.386;2023-04-23T03:05:59;97272.84;;;6.90;100.00
8061;BME280;4073;42.626;25.386;2023-04-23T03:08:25;97273.88;;;6.89;100.00
8061;BME280;4073;42.626;25.386;2023-04-23T03:10:50;97243.41;;;6.75;100.00
8061;BME280;4073;42.626;25.386;2023-04-23T03:13:15;97269.13;;;6.91;100.00
8061;BME280;4073;42.626;25.386;2023-04-23T03:15:41;97275.66;;;6.84;100.00
8061;BME280;4073;42.626;25.386;2023-04-23T03:18:06;97258.16;;;6.66;100.00
8061;BME280;4073;42.626;25.386;2023-04-23T03:20:34;97246.00;;;6.70;100.00
8061;BME280;4073;42.626;25.386;2023-04-23T03:23:00;97293.03;;;6.91;100.00
8061;BME280;4073;42.626;25.386;2023-04-23T03:25:25;97251.59;;;6.74;100.00
8061;BME280;4073;42.626;25.386;2023-04-23T03:27:51;97286.63;;;6.87;100.00
8061;BME280;4073;42.626;25.386;2023-04-23T03:30:17;97268.69;;;6.78;100.00
8061;BME280;4073;42.626;25.386;2023-04-23T03:32:43;97300.84;;;6.98;100.00
8061;BME280;4073;42.626;25.386;2023-04-23T03:35:08;97265.53;;;6.81;100.00
8061;BME280;4073;42.626;25.386;2023-04-23T03:37:34;97283.38;;;6.85;100.00
8061;BME280;4073;42.626;25.386;2023-04-23T03:39:59;97286.75;;;6.97;100.00
8061;BME280;4073;42.626;25.386;2023-04-23T03:42:28;97292.69;;;7.04;100.00
8061;BME280;4073;42.626;25.386;2023-04-23T03:44:53;97260.41;;;6.96;100.00
8061;BME280;4073;42.626;25.386;2023-04-23T03:47:19;97291.53;;;7.17;100.00
8061;BME280;4073;42.626;25.386;2023-04-23T03:49:44;97299.19;;;7.13;100.00
8061;BME280;4073;42.626;25.386;2023-04-23T03:52:09;97298.53;;;7.23;100.00
8061;BME280;4073;42.626;25.386;2023-04-23T03:54:35;97296.66;;;7.23;100.00
8061;BME280;4073;42.626;25.386;2023-04-23T03:57:00;97291.28;;;7.18;100.00
8061;BME280;4073;42.626;25.386;2023-04-23T03:59:26;97281.00;;;7.05;100.00
8061;BME280;4073;42.626;25.386;2023-04-23T04:01:52;97305.00;;;7.32;100.00
8061;BME280;4073;42.626;25.386;2023-04-23T04:04:17;97270.06;;;7.23;100.00
8061;BME280;4073;42.626;25.386;2023-04-23T04:06:43;97296.41;;;7.46;100.00
8061;BME280;4073;42.626;25.386;2023-04-23T04:09:08;97314.41;;;7.61;100.00
8061;BME280;4073;42.626;25.386;2023-04-23T04:11:34;97289.47;;;7.45;100.00
8061;BME280;4073;42.626;25.386;2023-04-23T04:13:59;97309.44;;;7.69;100.00
8061;BME280;4073;42.626;25.386;2023-04-23T04:16:25;97310.63;;;7.78;100.00
8061;BME280;4073;42.626;25.386;2023-04-23T04:18:50;97314.72;;;7.91;100.00
8061;BME280;4073;42.626;25.386;2023-04-23T04:21:16;97322.31;;;8.04;100.00
8061;BME280;4073;42.626;25.386;2023-04-23T04:23:43;97277.13;;;7.82;100.00
8061;BME280;4073;42.626;25.386;2023-04-23T04:26:09;97310.94;;;8.14;100.00
8061;BME280;4073;42.626;25.386;2023-04-23T04:28:35;97314.00;;;8.22;100.00
8061;BME280;4073;42.626;25.386;2023-04-23T04:31:02;97291.50;;;8.13;100.00
8061;BME280;4073;42.626;25.386;2023-04-23T04:33:29;97285.38;;;8.13;100.00
8061;BME280;4073;42.626;25.386;2023-04-23T04:35:56;97312.75;;;8.35;100.00
8061;BME280;4073;42.626;25.386;2023-04-23T04:38:21;97318.75;;;8.47;100.00
8061;BME280;4073;42.626;25.386;2023-04-23T04:40:47;97320.19;;;8.64;100.00
8061;BME280;4073;42.626;25.386;2023-04-23T04:43:13;97305.00;;;8.60;100.00
8061;BME280;4073;42.626;25.386;2023-04-23T04:45:39;97314.97;;;8.79;100.00
8061;BME280;4073;42.626;25.386;2023-04-23T04:48:05;97332.22;;;9.08;100.00
8061;BME280;4073;42.626;25.386;2023-04-23T04:50:30;97330.44;;;9.24;100.00
8061;BME280;4073;42.626;25.386;2023-04-23T04:52:56;97333.72;;;9.36;100.00
8061;BME280;4073;42.626;25.386;2023-04-23T04:55:21;97329.75;;;9.48;100.00
8061;BME280;4073;42.626;25.386;2023-04-23T04:57:46;97312.34;;;9.31;100.00
8061;BME280;4073;42.626;25.386;2023-04-23T05:00:23;97320.63;;;9.34;100.00
8061;BME280;4073;42.626;25.386;2023-04-23T05:02:51;97317.44;;;9.37;100.00
8061;BME280;4073;42.626;25.386;2023-04-23T05:05:17;97314.78;;;9.42;100.00
8061;BME280;4073;42.626;25.386;2023-04-23T05:07:43;97328.28;;;9.77;100.00
8061;BME280;4073;42.626;25.386;2023-04-23T05:10:09;97314.09;;;9.62;100.00
8061;BME280;4073;42.626;25.386;2023-04-23T05:12:35;97334.44;;;9.88;100.00
8061;BME280;4073;42.626;25.386;2023-04-23T05:15:02;97338.75;;;9.89;100.00
8061;BME280;4073;42.626;25.386;2023-04-23T05:17:28;97335.28;;;10.03;100.00
8061;BME280;4073;42.626;25.386;2023-04-23T05:19:54;97342.84;;;10.21;100.00
8061;BME280;4073;42.626;25.386;2023-04-23T05:22:19;97345.78;;;10.35;100.00
8061;BME280;4073;42.626;25.386;2023-04-23T05:24:45;97344.22;;;10.44;100.00
8061;BME280;4073;42.626;25.386;2023-04-23T05:27:11;97351.69;;;10.42;100.00
8061;BME280;4073;42.626;25.386;2023-04-23T05:29:36;97341.25;;;10.50;100.00
8061;BME280;4073;42.626;25.386;2023-04-23T05:32:01;97345.81;;;10.50;100.00
8061;BME280;4073;42.626;25.386;2023-04-23T05:34:27;97348.78;;;10.59;100.00
8061;BME280;4073;42.626;25.386;2023-04-23T05:36:52;97317.75;;;10.52;100.00
8061;BME280;4073;42.626;25.386;2023-04-23T05:39:18;97341.81;;;10.73;100.00
8061;BME280;4073;42.626;25.386;2023-04-23T05:41:43;97344.47;;;10.88;100.00
8061;BME280;4073;42.626;25.386;2023-04-23T05:44:09;97350.88;;;10.92;100.00
8061;BME280;4073;42.626;25.386;2023-04-23T05:46:34;97321.75;;;10.85;100.00
8061;BME280;4073;42.626;25.386;2023-04-23T05:49:00;97341.78;;;11.03;100.00
8061;BME280;4073;42.626;25.386;2023-04-23T05:51:25;97354.09;;;11.04;100.00
8061;BME280;4073;42.626;25.386;2023-04-23T05:53:51;97328.16;;;10.89;100.00
8061;BME280;4073;42.626;25.386;2023-04-23T05:56:17;97353.81;;;11.05;100.00
8061;BME280;4073;42.626;25.386;2023-04-23T05:58:42;97344.47;;;11.03;100.00
8061;BME280;4073;42.626;25.386;2023-04-23T06:01:08;97356.22;;;11.17;100.00
8061;BME280;4073;42.626;25.386;2023-04-23T06:03:34;97362.34;;;11.27;100.00
8061;BME280;4073;42.626;25.386;2023-04-23T06:06:01;97333.97;;;11.26;100.00
8061;BME280;4073;42.626;25.386;2023-04-23T06:08:26;97367.63;;;11.62;100.00
8061;BME280;4073;42.626;25.386;2023-04-23T06:10:52;97341.38;;;11.64;100.00
8061;BME280;4073;42.626;25.386;2023-04-23T06:13:17;97365.91;;;11.91;100.00
8061;BME280;4073;42.626;25.386;2023-04-23T06:15:42;97341.69;;;12.11;100.00
8061;BME280;4073;42.626;25.386;2023-04-23T06:18:08;97352.38;;;12.55;100.00
8061;BME280;4073;42.626;25.386;2023-04-23T06:20:34;97366.38;;;12.85;100.00
8061;BME280;4073;42.626;25.386;2023-04-23T06:23:00;97372.34;;;13.11;100.00
8061;BME280;4073;42.626;25.386;2023-04-23T06:25:27;97322.81;;;13.27;100.00
8061;BME280;4073;42.626;25.386;2023-04-23T06:27:53;97339.28;;;13.86;100.00
8061;BME280;4073;42.626;25.386;2023-04-23T06:30:18;97365.53;;;14.36;100.00
8061;BME280;4073;42.626;25.386;2023-04-23T06:32:44;97343.44;;;14.39;100.00
8061;BME280;4073;42.626;25.386;2023-04-23T06:35:09;97363.84;;;14.59;100.00
8061;BME280;4073;42.626;25.386;2023-04-23T06:37:35;97368.66;;;14.62;100.00
8061;BME280;4073;42.626;25.386;2023-04-23T06:40:00;97344.88;;;14.50;100.00
8061;BME280;4073;42.626;25.386;2023-04-23T06:42:26;97374.09;;;14.75;100.00
8061;BME280;4073;42.626;25.386;2023-04-23T06:44:51;97372.66;;;14.96;100.00
8061;BME280;4073;42.626;25.386;2023-04-23T06:50:02;97344.53;;;14.89;100.00
8061;BME280;4073;42.626;25.386;2023-04-23T06:52:28;97374.66;;;15.23;100.00
8061;BME280;4073;42.626;25.386;2023-04-23T06:54:53;97344.63;;;15.29;100.00
8061;BME280;4073;42.626;25.386;2023-04-23T06:57:19;97347.78;;;15.50;100.00
8061;BME280;4073;42.626;25.386;2023-04-23T06:59:46;97378.22;;;15.78;91.81
8061;BME280;4073;42.626;25.386;2023-04-23T07:02:11;97356.56;;;15.83;81.99
8061;BME280;4073;42.626;25.386;2023-04-23T07:04:37;97379.50;;;16.21;79.08
8061;BME280;4073;42.626;25.386;2023-04-23T07:07:02;97383.97;;;16.39;77.25
8061;BME280;4073;42.626;25.386;2023-04-23T07:09:28;97385.78;;;16.43;78.93
8061;BME280;4073;42.626;25.386;2023-04-23T07:11:53;97383.16;;;16.52;79.73
8061;BME280;4073;42.626;25.386;2023-04-23T07:14:19;97376.47;;;16.85;79.15
8061;BME280;4073;42.626;25.386;2023-04-23T07:16:44;97378.78;;;17.44;77.15
8061;BME280;4073;42.626;25.386;2023-04-23T07:19:10;97368.75;;;17.75;73.28
8061;BME280;4073;42.626;25.386;2023-04-23T07:21:35;97386.84;;;18.14;71.17
8061;BME280;4073;42.626;25.386;2023-04-23T07:24:01;97387.44;;;18.50;70.36
8061;BME280;4073;42.626;25.386;2023-04-23T07:26:34;97379.81;;;18.94;69.03
8061;BME280;4073;42.626;25.386;2023-04-23T07:29:01;97385.66;;;19.47;65.00
8061;BME280;4073;42.626;25.386;2023-04-23T07:31:27;97370.69;;;19.87;59.05
8061;BME280;4073;42.626;25.386;2023-04-23T07:33:55;97374.88;;;20.14;56.95
8061;BME280;4073;42.626;25.386;2023-04-23T07:36:21;97367.28;;;19.99;55.81
8061;BME280;4073;42.626;25.386;2023-04-23T07:38:47;97379.38;;;20.01;55.04
8061;BME280;4073;42.626;25.386;2023-04-23T07:41:13;97377.03;;;19.91;54.27
8061;BME280;4073;42.626;25.386;2023-04-23T07:43:39;97379.28;;;19.89;48.00
8061;BME280;4073;42.626;25.386;2023-04-23T07:46:06;97360.94;;;19.86;49.02
8061;BME280;4073;42.626;25.386;2023-04-23T07:48:31;97363.19;;;19.84;50.23
8061;BME280;4073;42.626;25.386;2023-04-23T07:50:59;97359.81;;;19.87;48.43
8061;BME280;4073;42.626;25.386;2023-04-23T07:53:25;97361.47;;;20.17;43.72
8061;BME280;4073;42.626;25.386;2023-04-23T07:55:53;97343.97;;;20.27;43.96
8061;BME280;4073;42.626;25.386;2023-04-23T07:58:20;97358.56;;;20.43;43.26
8061;BME280;4073;42.626;25.386;2023-04-23T08:00:45;97341.53;;;20.34;43.35
8061;BME280;4073;42.626;25.386;2023-04-23T08:03:11;97357.97;;;20.38;43.32
8061;BME280;4073;42.626;25.386;2023-04-23T08:05:36;97359.50;;;20.47;42.78
8061;BME280;4073;42.626;25.386;2023-04-23T08:08:03;97339.31;;;20.36;44.77
8061;BME280;4073;42.626;25.386;2023-04-23T08:10:28;97339.03;;;20.29;44.73
8061;BME280;4073;42.626;25.386;2023-04-23T08:12:54;97358.09;;;20.41;44.88
8061;BME280;4073;42.626;25.386;2023-04-23T08:15:19;97352.75;;;20.53;45.09
8061;BME280;4073;42.626;25.386;2023-04-23T08:17:45;97337.25;;;20.74;44.53
8061;BME280;4073;42.626;25.386;2023-04-23T08:20:10;97340.50;;;21.09;43.49
8061;BME280;4073;42.626;25.386;2023-04-23T08:22:36;97327.75;;;21.01;43.41
8061;BME280;4073;42.626;25.386;2023-04-23T08:25:02;97349.47;;;21.21;42.25
8061;BME280;4073;42.626;25.386;2023-04-23T08:27:29;97335.53;;;21.23;43.40
8061;BME280;4073;42.626;25.386;2023-04-23T08:29:55;97341.69;;;20.99;42.21
8061;BME280;4073;42.626;25.386;2023-04-23T08:32:20;97348.31;;;21.10;43.30
8061;BME280;4073;42.626;25.386;2023-04-23T08:34:45;97334.91;;;21.38;43.16
8061;BME280;4073;42.626;25.386;2023-04-23T08:37:11;97337.22;;;21.72;42.19
8061;BME280;4073;42.626;25.386;2023-04-23T08:39:36;97338.53;;;21.98;42.03
8061;BME280;4073;42.626;25.386;2023-04-23T08:42:10;97312.63;;;22.04;41.03
8061;BME280;4073;42.626;25.386;2023-04-23T08:44:40;97321.44;;;22.37;41.74
8061;BME280;4073;42.626;25.386;2023-04-23T08:47:09;97322.03;;;22.31;41.55
8061;BME280;4073;42.626;25.386;2023-04-23T08:49:40;97321.44;;;22.37;40.93
8061;BME280;4073;42.626;25.386;2023-04-23T08:52:16;97326.31;;;22.44;40.61
8061;BME280;4073;42.626;25.386;2023-04-23T08:54:48;97325.44;;;22.52;40.43
8061;BME280;4073;42.626;25.386;2023-04-23T08:57:15;97316.22;;;22.44;40.70
8061;BME280;4073;42.626;25.386;2023-04-23T08:59:41;97315.75;;;22.66;40.40
8061;BME280;4073;42.626;25.386;2023-04-23T09:02:08;97311.91;;;22.55;40.40
8061;BME280;4073;42.626;25.386;2023-04-23T09:04:35;97296.03;;;22.33;40.67
8061;BME280;4073;42.626;25.386;2023-04-23T09:07:01;97317.44;;;22.47;41.53
8061;BME280;4073;42.626;25.386;2023-04-23T09:09:28;97317.06;;;22.72;38.92
8061;BME280;4073;42.626;25.386;2023-04-23T09:11:55;97308.25;;;22.63;39.17
8061;BME280;4073;42.626;25.386;2023-04-23T09:14:24;97310.53;;;22.61;39.64
8061;BME280;4073;42.626;25.386;2023-04-23T09:16:51;97307.56;;;22.66;39.25
8061;BME280;4073;42.626;25.386;2023-04-23T09:19:17;97307.56;;;21.91;40.51
8061;BME280;4073;42.626;25.386;2023-04-23T09:21:46;97302.66;;;21.72;41.52
8061;BME280;4073;42.626;25.386;2023-04-23T09:24:12;97301.75;;;22.04;41.15
8061;BME280;4073;42.626;25.386;2023-04-23T09:26:46;97297.41;;;22.39;40.91
8061;BME280;4073;42.626;25.386;2023-04-23T09:29:17;97293.94;;;22.94;39.57
8061;BME280;4073;42.626;25.386;2023-04-23T09:31:47;97296.56;;;23.34;38.57
8061;BME280;4073;42.626;25.386;2023-04-23T09:34:22;97292.28;;;23.48;38.47
8061;BME280;4073;42.626;25.386;2023-04-23T09:36:49;97258.94;;;23.55;37.05
8061;BME280;4073;42.626;25.386;2023-04-23T09:39:17;97283.50;;;23.70;37.87
8061;BME280;4073;42.626;25.386;2023-04-23T09:41:43;97280.81;;;23.89;37.30
8061;BME280;4073;42.626;25.386;2023-04-23T09:44:19;97287.16;;;23.78;37.65
8061;BME280;4073;42.626;25.386;2023-04-23T09:46:47;97264.38;;;23.39;36.94
8061;BME280;4073;42.626;25.386;2023-04-23T09:49:13;97253.06;;;23.10;37.21
8061;BME280;4073;42.626;25.386;2023-04-23T09:51:43;97277.78;;;23.17;37.43
8061;BME280;4073;42.626;25.386;2023-04-23T09:54:14;97255.31;;;22.92;37.52
8061;BME280;4073;42.626;25.386;2023-04-23T09:56:41;97263.38;;;22.61;38.16
8061;BME280;4073;42.626;25.386;2023-04-23T09:59:24;97267.13;;;22.68;38.08
8061;BME280;4073;42.626;25.386;2023-04-23T10:01:51;97269.66;;;22.61;37.69
8061;BME280;4073;42.626;25.386;2023-04-23T10:04:21;97263.84;;;22.63;36.69
8061;BME280;4073;42.626;25.386;2023-04-23T10:07:01;97241.56;;;22.73;37.54
8061;BME280;4073;42.626;25.386;2023-04-23T10:09:28;97259.94;;;22.76;37.89
8061;BME280;4073;42.626;25.386;2023-04-23T10:11:58;97264.72;;;22.67;37.46
8061;BME280;4073;42.626;25.386;2023-04-23T10:14:25;97257.56;;;22.74;36.31
8061;BME280;4073;42.626;25.386;2023-04-23T10:16:59;97257.06;;;22.85;36.75
8061;BME280;4073;42.626;25.386;2023-04-23T10:19:25;97250.38;;;22.82;37.28
8061;BME280;4073;42.626;25.386;2023-04-23T10:21:57;97248.97;;;22.88;36.62
8061;BME280;4073;42.626;25.386;2023-04-23T10:24:28;97245.97;;;22.77;36.51
8061;BME280;4073;42.626;25.386;2023-04-23T10:26:59;97244.69;;;22.47;36.39
8061;BME280;4073;42.626;25.386;2023-04-23T10:29:33;97247.50;;;22.63;35.76
8061;BME280;4073;42.626;25.386;2023-04-23T10:32:01;97244.09;;;22.26;36.26
8061;BME280;4073;42.626;25.386;2023-04-23T10:34:29;97242.31;;;22.58;34.98
8061;BME280;4073;42.626;25.386;2023-04-23T10:36:56;97235.66;;;22.71;34.39
8061;BME280;4073;42.626;25.386;2023-04-23T10:39:23;97223.56;;;22.84;35.18
8061;BME280;4073;42.626;25.386;2023-04-23T10:41:50;97229.97;;;22.48;34.52
8061;BME280;4073;42.626;25.386;2023-04-23T10:44:18;97228.53;;;22.66;33.40
8061;BME280;4073;42.626;25.386;2023-04-23T10:46:53;97223.38;;;22.93;32.60
8061;BME280;4073;42.626;25.386;2023-04-23T10:49:23;97204.59;;;23.19;32.73
8061;BME280;4073;42.626;25.386;2023-04-23T10:52:07;97222.19;;;23.68;32.32
8061;BME280;4073;42.626;25.386;2023-04-23T10:54:33;97221.81;;;23.85;32.08
8061;BME280;4073;42.626;25.386;2023-04-23T10:57:05;97227.28;;;23.85;32.45
8061;BME280;4073;42.626;25.386;2023-04-23T10:59:32;97224.50;;;23.66;31.91
8061;BME280;4073;42.626;25.386;2023-04-23T11:02:06;97223.66;;;23.46;32.48
8061;BME280;4073;42.626;25.386;2023-04-23T11:04:33;97217.13;;;24.01;31.42
8061;BME280;4073;42.626;25.386;2023-04-23T11:07:06;97197.59;;;23.99;31.51
8061;BME280;4073;42.626;25.386;2023-04-23T11:12:10;97198.13;;;25.26;30.75
8061;BME280;4073;42.626;25.386;2023-04-23T11:14:47;97198.41;;;25.40;30.29
8061;BME280;4073;42.626;25.386;2023-04-23T11:17:16;97203.88;;;24.37;32.27
8061;BME280;4073;42.626;25.386;2023-04-23T11:22:50;97192.94;;;22.47;35.81
8061;BME280;4073;42.626;25.386;2023-04-23T11:25:23;97199.09;;;21.93;36.17
8061;BME280;4073;42.626;25.386;2023-04-23T11:27:51;97190.31;;;21.12;37.84
8061;BME280;4073;42.626;25.386;2023-04-23T11:30:19;97200.59;;;21.06;38.61
8061;BME280;4073;42.626;25.386;2023-04-23T11:32:47;97190.16;;;20.64;40.34
8061;BME280;4073;42.626;25.386;2023-04-23T11:35:14;97218.69;;;20.58;43.87
8061;BME280;4073;42.626;25.386;2023-04-23T11:37:41;97196.88;;;19.84;42.73
8061;BME280;4073;42.626;25.386;2023-04-23T11:40:07;97212.72;;;19.53;44.88
8061;BME280;4073;42.626;25.386;2023-04-23T11:42:44;97219.44;;;19.09;46.44
8061;BME280;4073;42.626;25.386;2023-04-23T11:45:18;97224.19;;;19.21;46.45
8061;BME280;4073;42.626;25.386;2023-04-23T11:47:45;97210.00;;;19.53;44.77
8061;BME280;4073;42.626;25.386;2023-04-23T11:52:44;97205.44;;;20.56;42.38
8061;BME280;4073;42.626;25.386;2023-04-23T11:55:09;97206.19;;;20.89;40.66
8061;BME280;4073;42.626;25.386;2023-04-23T11:57:40;97200.94;;;21.17;39.80
8061;BME280;4073;42.626;25.386;2023-04-23T12:00:25;97195.84;;;21.39;39.66
8061;BME280;4073;42.626;25.386;2023-04-23T12:05:22;97193.91;;;21.04;40.06
8061;BME280;4073;42.626;25.386;2023-04-23T12:07:49;97187.94;;;20.45;41.55
8061;BME280;4073;42.626;25.386;2023-04-23T12:10:19;97192.03;;;20.51;41.25
8061;BME280;4073;42.626;25.386;2023-04-23T12:12:52;97177.13;;;20.57;41.88
8061;BME280;4073;42.626;25.386;2023-04-23T12:15:18;97189.22;;;20.92;40.41
8061;BME280;4073;42.626;25.386;2023-04-23T12:17:50;97173.88;;;21.08;39.69
8061;BME280;4073;42.626;25.386;2023-04-23T12:20:20;97178.09;;;20.73;38.69
8061;BME280;4073;42.626;25.386;2023-04-23T12:22:46;97181.00;;;20.68;38.11
8061;BME280;4073;42.626;25.386;2023-04-23T12:25:13;97173.09;;;20.75;37.65
8061;BME280;4073;42.626;25.386;2023-04-23T12:27:43;97175.38;;;20.85;38.11
8061;BME280;4073;42.626;25.386;2023-04-23T12:30:09;97156.31;;;21.18;37.25
8061;BME280;4073;42.626;25.386;2023-04-23T12:32:36;97148.94;;;21.06;36.82
8061;BME280;4073;42.626;25.386;2023-04-23T12:35:02;97153.03;;;21.00;37.15
8061;BME280;4073;42.626;25.386;2023-04-23T12:37:34;97152.91;;;20.97;38.30
8061;BME280;4073;42.626;25.386;2023-04-23T12:40:00;97156.84;;;20.87;36.56
8061;BME280;4073;42.626;25.386;2023-04-23T12:42:26;97144.59;;;20.69;37.20
8061;BME280;4073;42.626;25.386;2023-04-23T12:44:52;97148.66;;;20.75;36.14
8061;BME280;4073;42.626;25.386;2023-04-23T12:47:19;97141.00;;;21.13;35.80
8061;BME280;4073;42.626;25.386;2023-04-23T12:49:45;97140.91;;;21.22;35.35
8061;BME280;4073;42.626;25.386;2023-04-23T12:52:13;97114.63;;;21.14;34.22
8061;BME280;4073;42.626;25.386;2023-04-23T12:54:39;97148.03;;;21.38;33.77
8061;BME280;4073;42.626;25.386;2023-04-23T12:57:07;97139.22;;;21.41;34.15
8061;BME280;4073;42.626;25.386;2023-04-23T12:59:34;97133.06;;;21.56;33.96
8061;BME280;4073;42.626;25.386;2023-04-23T13:02:00;97142.84;;;21.21;34.17
8061;BME280;4073;42.626;25.386;2023-04-23T13:04:29;97130.91;;;20.90;35.46
8061;BME280;4073;42.626;25.386;2023-04-23T13:06:54;97146.16;;;20.82;34.88
8061;BME280;4073;42.626;25.386;2023-04-23T13:09:20;97135.88;;;20.76;34.87
8061;BME280;4073;42.626;25.386;2023-04-23T13:11:46;97109.25;;;20.81;34.78
8061;BME280;4073;42.626;25.386;2023-04-23T13:14:14;97132.31;;;20.96;34.63
8061;BME280;4073;42.626;25.386;2023-04-23T13:16:42;97130.16;;;21.01;34.52
8061;BME280;4073;42.626;25.386;2023-04-23T13:19:09;97129.91;;;20.94;34.59
8061;BME280;4073;42.626;25.386;2023-04-23T13:21:37;97122.56;;;20.95;34.76